sensor_id;sensor_type;location;lat;lon;timestamp;temperature;humidity
12700;DHT22;6414;49.570;6.060;2022-12-18T00:01:27;-7.10;99.90
12700;DHT22;6414;49.570;6.060;2022-12-18T00:04:14;-7.30;99.90
12700;DHT22;6414;49.570;6.060;2022-12-18T00:06:55;-7.20;99.90
12700;DHT22;6414;49.570;6.060;2022-12-18T00:09:40;-7.20;99.90
12700;DHT22;6414;49.570;6.060;2022-12-18T00:12:26;-7.20;99.90
12700;DHT22;6414;49.570;6.060;2022-12-18T00:15:13;-7.20;99.90
12700;DHT22;6414;49.570;6.060;2022-12-18T00:17:59;-7.20;99.90
12700;DHT22;6414;49.570;6.060;2022-12-18T00:20:44;-7.30;99.90
12700;DHT22;6414;49.570;6.060;2022-12-18T00:23:30;-7.30;99.90
12700;DHT22;6414;49.570;6.060;2022-12-18T00:26:18;-7.70;99.90
12700;DHT22;6414;49.570;6.060;2022-12-18T00:29:07;-7.70;99.90
12700;DHT22;6414;49.570;6.060;2022-12-18T00:31:51;-8.10;99.90
12700;DHT22;6414;49.570;6.060;2022-12-18T00:34:37;-8.10;99.90
12700;DHT22;6414;49.570;6.060;2022-12-18T00:37:24;-7.60;99.90
12700;DHT22;6414;49.570;6.060;2022-12-18T00:40:10;-7.60;99.90
12700;DHT22;6414;49.570;6.060;2022-12-18T00:42:55;-7.60;99.90
12700;DHT22;6414;49.570;6.060;2022-12-18T00:45:40;-7.80;99.90
12700;DHT22;6414;49.570;6.060;2022-12-18T00:48:26;-7.50;99.90
12700;DHT22;6414;49.570;6.060;2022-12-18T00:51:11;-7.30;99.90
12700;DHT22;6414;49.570;6.060;2022-12-18T00:53:57;-7.30;99.90
12700;DHT22;6414;49.570;6.060;2022-12-18T00:56:43;-7.50;99.90
12700;DHT22;6414;49.570;6.060;2022-12-18T00:59:29;-7.40;99.90
12700;DHT22;6414;49.570;6.060;2022-12-18T01:02:14;-7.40;99.90
12700;DHT22;6414;49.570;6.060;2022-12-18T01:05:00;-7.10;99.90
12700;DHT22;6414;49.570;6.060;2022-12-18T01:07:45;-7.10;99.90
12700;DHT22;6414;49.570;6.060;2022-12-18T01:10:30;-7.20;99.90
12700;DHT22;6414;49.570;6.060;2022-12-18T01:13:16;-7.30;99.90
12700;DHT22;6414;49.570;6.060;2022-12-18T01:16:02;-7.30;99.90
12700;DHT22;6414;49.570;6.060;2022-12-18T01:18:50;-7.20;99.90
12700;DHT22;6414;49.570;6.060;2022-12-18T01:21:33;-7.20;99.90
12700;DHT22;6414;49.570;6.060;2022-12-18T01:24:19;-7.20;99.90
12700;DHT22;6414;49.570;6.060;2022-12-18T01:27:04;-7.10;99.90
12700;DHT22;6414;49.570;6.060;2022-12-18T01:29:49;-7.40;99.90
12700;DHT22;6414;49.570;6.060;2022-12-18T01:32:35;-7.30;99.90
12700;DHT22;6414;49.570;6.060;2022-12-18T01:35:21;-7.10;99.90
12700;DHT22;6414;49.570;6.060;2022-12-18T01:38:07;-7.10;99.90
12700;DHT22;6414;49.570;6.060;2022-12-18T01:40:59;-7.50;99.90
12700;DHT22;6414;49.570;6.060;2022-12-18T01:43:52;-7.50;99.90
12700;DHT22;6414;49.570;6.060;2022-12-18T01:46:35;-7.60;99.90
12700;DHT22;6414;49.570;6.060;2022-12-18T01:49:21;-7.50;99.90
12700;DHT22;6414;49.570;6.060;2022-12-18T01:52:06;-7.50;99.90
12700;DHT22;6414;49.570;6.060;2022-12-18T01:54:53;-7.10;99.90
12700;DHT22;6414;49.570;6.060;2022-12-18T01:57:38;-7.10;99.90
12700;DHT22;6414;49.570;6.060;2022-12-18T02:00:24;-7.30;99.90
12700;DHT22;6414;49.570;6.060;2022-12-18T02:03:10;-7.50;99.90
12700;DHT22;6414;49.570;6.060;2022-12-18T02:06:05;-7.50;99.90
12700;DHT22;6414;49.570;6.060;2022-12-18T02:09:07;-7.70;99.90
12700;DHT22;6414;49.570;6.060;2022-12-18T02:11:53;-7.50;99.90
12700;DHT22;6414;49.570;6.060;2022-12-18T02:14:39;-7.60;99.90
12700;DHT22;6414;49.570;6.060;2022-12-18T02:17:37;-7.70;99.90
12700;DHT22;6414;49.570;6.060;2022-12-18T02:20:20;-7.70;99.90
12700;DHT22;6414;49.570;6.060;2022-12-18T02:23:23;-7.90;99.90
12700;DHT22;6414;49.570;6.060;2022-12-18T02:26:36;-8.00;99.90
12700;DHT22;6414;49.570;6.060;2022-12-18T02:29:24;-7.80;99.90
12700;DHT22;6414;49.570;6.060;2022-12-18T02:32:13;-7.80;99.90
12700;DHT22;6414;49.570;6.060;2022-12-18T02:34:57;-7.80;99.90
12700;DHT22;6414;49.570;6.060;2022-12-18T02:37:43;-7.80;99.90
12700;DHT22;6414;49.570;6.060;2022-12-18T02:40:28;-7.90;99.90
12700;DHT22;6414;49.570;6.060;2022-12-18T02:43:14;-8.00;99.90
12700;DHT22;6414;49.570;6.060;2022-12-18T02:45:59;-7.80;99.90
12700;DHT22;6414;49.570;6.060;2022-12-18T02:48:44;-7.90;99.90
12700;DHT22;6414;49.570;6.060;2022-12-18T02:51:32;-7.70;99.90
12700;DHT22;6414;49.570;6.060;2022-12-18T02:54:20;-7.50;99.90
12700;DHT22;6414;49.570;6.060;2022-12-18T02:57:03;-7.50;99.90
12700;DHT22;6414;49.570;6.060;2022-12-18T02:59:49;-7.40;99.90
12700;DHT22;6414;49.570;6.060;2022-12-18T03:02:37;-7.40;99.90
12700;DHT22;6414;49.570;6.060;2022-12-18T03:05:36;-7.50;99.90
12700;DHT22;6414;49.570;6.060;2022-12-18T03:10:58;-7.60;99.90
12700;DHT22;6414;49.570;6.060;2022-12-18T03:13:48;-7.70;99.90
12700;DHT22;6414;49.570;6.060;2022-12-18T03:16:33;-7.30;99.90
12700;DHT22;6414;49.570;6.060;2022-12-18T03:19:19;-7.30;99.90
12700;DHT22;6414;49.570;6.060;2022-12-18T03:22:04;-7.10;99.90
12700;DHT22;6414;49.570;6.060;2022-12-18T03:24:50;-7.10;99.90
12700;DHT22;6414;49.570;6.060;2022-12-18T03:27:36;-7.20;99.90
12700;DHT22;6414;49.570;6.060;2022-12-18T03:30:21;-7.30;99.90
12700;DHT22;6414;49.570;6.060;2022-12-18T03:33:19;-7.30;99.90
12700;DHT22;6414;49.570;6.060;2022-12-18T03:35:55;-7.50;99.90
12700;DHT22;6414;49.570;6.060;2022-12-18T03:38:40;-7.50;99.90
12700;DHT22;6414;49.570;6.060;2022-12-18T03:41:28;-7.40;99.90
12700;DHT22;6414;49.570;6.060;2022-12-18T03:44:20;-7.10;99.90
12700;DHT22;6414;49.570;6.060;2022-12-18T03:47:13;-6.90;99.90
12700;DHT22;6414;49.570;6.060;2022-12-18T03:52:49;-7.50;99.90
12700;DHT22;6414;49.570;6.060;2022-12-18T03:55:30;-7.60;99.90
12700;DHT22;6414;49.570;6.060;2022-12-18T03:58:15;-7.90;99.90
12700;DHT22;6414;49.570;6.060;2022-12-18T04:01:01;-8.00;95.80
12700;DHT22;6414;49.570;6.060;2022-12-18T04:03:46;-7.60;99.90
12700;DHT22;6414;49.570;6.060;2022-12-18T04:06:31;-7.50;99.90
12700;DHT22;6414;49.570;6.060;2022-12-18T04:09:17;-7.90;99.90
12700;DHT22;6414;49.570;6.060;2022-12-18T04:12:02;-8.10;64.70
12700;DHT22;6414;49.570;6.060;2022-12-18T04:14:48;-8.20;7.90
12700;DHT22;6414;49.570;6.060;2022-12-18T04:17:33;-8.20;8.50
12700;DHT22;6414;49.570;6.060;2022-12-18T04:20:19;-8.20;54.30
12700;DHT22;6414;49.570;6.060;2022-12-18T04:23:05;-8.10;99.90
12700;DHT22;6414;49.570;6.060;2022-12-18T04:25:50;-8.00;99.90
12700;DHT22;6414;49.570;6.060;2022-12-18T04:28:35;-7.90;99.90
12700;DHT22;6414;49.570;6.060;2022-12-18T04:31:21;-8.00;99.90
12700;DHT22;6414;49.570;6.060;2022-12-18T04:34:06;-7.90;99.90
12700;DHT22;6414;49.570;6.060;2022-12-18T04:36:52;-7.90;99.90
12700;DHT22;6414;49.570;6.060;2022-12-18T04:39:38;-7.80;99.90
12700;DHT22;6414;49.570;6.060;2022-12-18T04:42:23;-7.80;99.90
12700;DHT22;6414;49.570;6.060;2022-12-18T04:45:10;-8.10;99.90
12700;DHT22;6414;49.570;6.060;2022-12-18T04:48:00;-8.20;99.90
12700;DHT22;6414;49.570;6.060;2022-12-18T04:50:46;-8.20;99.90
12700;DHT22;6414;49.570;6.060;2022-12-18T04:53:31;-8.20;99.90
12700;DHT22;6414;49.570;6.060;2022-12-18T04:56:17;-8.40;99.90
12700;DHT22;6414;49.570;6.060;2022-12-18T04:59:03;-8.20;99.90
12700;DHT22;6414;49.570;6.060;2022-12-18T05:01:49;-8.20;99.90
12700;DHT22;6414;49.570;6.060;2022-12-18T05:04:34;-8.00;99.90
12700;DHT22;6414;49.570;6.060;2022-12-18T05:07:21;-8.00;99.90
12700;DHT22;6414;49.570;6.060;2022-12-18T05:10:06;-8.10;99.90
12700;DHT22;6414;49.570;6.060;2022-12-18T05:12:52;-8.00;99.90
12700;DHT22;6414;49.570;6.060;2022-12-18T05:15:50;-8.10;99.90
12700;DHT22;6414;49.570;6.060;2022-12-18T05:18:29;-8.10;99.90
12700;DHT22;6414;49.570;6.060;2022-12-18T05:21:14;-8.10;99.90
12700;DHT22;6414;49.570;6.060;2022-12-18T05:24:00;-8.00;99.90
12700;DHT22;6414;49.570;6.060;2022-12-18T05:26:45;-7.80;99.90
12700;DHT22;6414;49.570;6.060;2022-12-18T05:29:31;-7.80;99.90
12700;DHT22;6414;49.570;6.060;2022-12-18T05:32:16;-7.70;99.90
12700;DHT22;6414;49.570;6.060;2022-12-18T05:35:02;-7.70;99.90
12700;DHT22;6414;49.570;6.060;2022-12-18T05:37:47;-7.60;99.90
12700;DHT22;6414;49.570;6.060;2022-12-18T05:40:34;-7.60;99.90
12700;DHT22;6414;49.570;6.060;2022-12-18T05:43:19;-7.70;99.90
12700;DHT22;6414;49.570;6.060;2022-12-18T05:46:06;-7.50;99.90
12700;DHT22;6414;49.570;6.060;2022-12-18T05:48:51;-7.50;99.90
12700;DHT22;6414;49.570;6.060;2022-12-18T05:51:37;-7.50;99.90
12700;DHT22;6414;49.570;6.060;2022-12-18T05:54:23;-7.50;99.90
12700;DHT22;6414;49.570;6.060;2022-12-18T05:57:08;-7.40;99.90
12700;DHT22;6414;49.570;6.060;2022-12-18T05:59:54;-7.20;99.90
12700;DHT22;6414;49.570;6.060;2022-12-18T06:02:40;-7.20;99.90
12700;DHT22;6414;49.570;6.060;2022-12-18T06:05:26;-7.10;99.90
12700;DHT22;6414;49.570;6.060;2022-12-18T06:08:11;-7.10;99.90
12700;DHT22;6414;49.570;6.060;2022-12-18T06:10:57;-7.20;99.90
12700;DHT22;6414;49.570;6.060;2022-12-18T06:13:42;-7.30;99.90
12700;DHT22;6414;49.570;6.060;2022-12-18T06:16:28;-7.40;99.90
12700;DHT22;6414;49.570;6.060;2022-12-18T06:19:14;-7.80;99.90
12700;DHT22;6414;49.570;6.060;2022-12-18T06:21:58;-7.80;99.90
12700;DHT22;6414;49.570;6.060;2022-12-18T06:24:44;-7.90;99.90
12700;DHT22;6414;49.570;6.060;2022-12-18T06:27:30;-7.80;99.90
12700;DHT22;6414;49.570;6.060;2022-12-18T06:30:15;-7.70;99.90
12700;DHT22;6414;49.570;6.060;2022-12-18T06:33:00;-7.80;99.90
12700;DHT22;6414;49.570;6.060;2022-12-18T06:35:46;-7.80;99.90
12700;DHT22;6414;49.570;6.060;2022-12-18T06:38:32;-7.90;99.90
12700;DHT22;6414;49.570;6.060;2022-12-18T06:41:17;-7.80;99.90
12700;DHT22;6414;49.570;6.060;2022-12-18T06:44:03;-7.70;99.90
12700;DHT22;6414;49.570;6.060;2022-12-18T06:46:48;-7.70;99.90
12700;DHT22;6414;49.570;6.060;2022-12-18T06:49:34;-7.70;99.90
12700;DHT22;6414;49.570;6.060;2022-12-18T06:52:20;-7.60;99.90
12700;DHT22;6414;49.570;6.060;2022-12-18T06:55:06;-7.60;99.90
12700;DHT22;6414;49.570;6.060;2022-12-18T06:57:51;-7.70;99.90
12700;DHT22;6414;49.570;6.060;2022-12-18T07:00:36;-7.70;99.90
12700;DHT22;6414;49.570;6.060;2022-12-18T07:03:21;-7.70;99.90
12700;DHT22;6414;49.570;6.060;2022-12-18T07:06:14;-7.70;99.90
12700;DHT22;6414;49.570;6.060;2022-12-18T07:08:59;-7.70;99.90
12700;DHT22;6414;49.570;6.060;2022-12-18T07:11:45;-7.70;99.90
12700;DHT22;6414;49.570;6.060;2022-12-18T07:14:32;-7.70;99.90
12700;DHT22;6414;49.570;6.060;2022-12-18T07:17:17;-7.60;99.90
12700;DHT22;6414;49.570;6.060;2022-12-18T07:20:02;-7.60;99.90
12700;DHT22;6414;49.570;6.060;2022-12-18T07:22:48;-7.70;99.90
12700;DHT22;6414;49.570;6.060;2022-12-18T07:25:37;-7.70;99.90
12700;DHT22;6414;49.570;6.060;2022-12-18T07:28:22;-7.70;99.90
12700;DHT22;6414;49.570;6.060;2022-12-18T07:31:11;-7.60;99.90
12700;DHT22;6414;49.570;6.060;2022-12-18T07:33:53;-7.60;99.90
12700;DHT22;6414;49.570;6.060;2022-12-18T07:36:39;-7.50;99.90
12700;DHT22;6414;49.570;6.060;2022-12-18T07:39:24;-7.60;99.90
12700;DHT22;6414;49.570;6.060;2022-12-18T07:42:10;-7.50;99.90
12700;DHT22;6414;49.570;6.060;2022-12-18T07:45:13;-7.50;99.90
12700;DHT22;6414;49.570;6.060;2022-12-18T07:47:59;-7.50;99.90
12700;DHT22;6414;49.570;6.060;2022-12-18T07:50:44;-7.40;99.90
12700;DHT22;6414;49.570;6.060;2022-12-18T07:53:30;-7.30;99.90
12700;DHT22;6414;49.570;6.060;2022-12-18T07:56:15;-7.30;99.90
12700;DHT22;6414;49.570;6.060;2022-12-18T07:59:01;-7.20;99.90
12700;DHT22;6414;49.570;6.060;2022-12-18T08:01:46;-7.10;99.90
12700;DHT22;6414;49.570;6.060;2022-12-18T08:04:32;-7.10;99.90
12700;DHT22;6414;49.570;6.060;2022-12-18T08:07:18;-7.00;99.90
12700;DHT22;6414;49.570;6.060;2022-12-18T08:10:03;-7.00;99.90
12700;DHT22;6414;49.570;6.060;2022-12-18T08:12:49;-7.00;99.90
12700;DHT22;6414;49.570;6.060;2022-12-18T08:15:35;-7.10;99.90
12700;DHT22;6414;49.570;6.060;2022-12-18T08:18:20;-7.10;99.90
12700;DHT22;6414;49.570;6.060;2022-12-18T08:21:13;-7.10;99.90
12700;DHT22;6414;49.570;6.060;2022-12-18T08:23:58;-7.10;99.90
12700;DHT22;6414;49.570;6.060;2022-12-18T08:26:43;-7.10;99.90
12700;DHT22;6414;49.570;6.060;2022-12-18T08:29:29;-7.10;99.90
12700;DHT22;6414;49.570;6.060;2022-12-18T08:32:15;-7.10;99.90
12700;DHT22;6414;49.570;6.060;2022-12-18T08:35:01;-7.10;99.90
12700;DHT22;6414;49.570;6.060;2022-12-18T08:37:47;-7.20;99.90
12700;DHT22;6414;49.570;6.060;2022-12-18T08:40:32;-7.10;99.90
12700;DHT22;6414;49.570;6.060;2022-12-18T08:43:18;-7.10;99.90
12700;DHT22;6414;49.570;6.060;2022-12-18T08:46:22;-7.00;99.90
12700;DHT22;6414;49.570;6.060;2022-12-18T08:49:08;-7.10;99.90
12700;DHT22;6414;49.570;6.060;2022-12-18T08:51:56;-7.10;99.90
12700;DHT22;6414;49.570;6.060;2022-12-18T08:54:38;-7.10;99.90
12700;DHT22;6414;49.570;6.060;2022-12-18T08:57:24;-7.10;99.90
12700;DHT22;6414;49.570;6.060;2022-12-18T09:00:09;-7.30;99.90
12700;DHT22;6414;49.570;6.060;2022-12-18T09:02:55;-7.30;99.90
12700;DHT22;6414;49.570;6.060;2022-12-18T09:05:41;-7.30;99.90
12700;DHT22;6414;49.570;6.060;2022-12-18T09:08:26;-7.30;99.90
12700;DHT22;6414;49.570;6.060;2022-12-18T09:11:18;-7.10;99.90
12700;DHT22;6414;49.570;6.060;2022-12-18T09:14:00;-7.10;99.90
12700;DHT22;6414;49.570;6.060;2022-12-18T09:16:46;-7.30;99.90
12700;DHT22;6414;49.570;6.060;2022-12-18T09:19:31;-7.30;99.90
12700;DHT22;6414;49.570;6.060;2022-12-18T09:22:17;-7.30;99.90
12700;DHT22;6414;49.570;6.060;2022-12-18T09:25:02;-7.40;99.90
12700;DHT22;6414;49.570;6.060;2022-12-18T09:27:47;-7.40;99.90
12700;DHT22;6414;49.570;6.060;2022-12-18T09:30:33;-7.30;99.90
12700;DHT22;6414;49.570;6.060;2022-12-18T09:33:18;-7.40;99.90
12700;DHT22;6414;49.570;6.060;2022-12-18T09:36:05;-7.30;99.90
12700;DHT22;6414;49.570;6.060;2022-12-18T09:38:49;-7.20;99.90
12700;DHT22;6414;49.570;6.060;2022-12-18T09:41:45;-7.20;99.90
12700;DHT22;6414;49.570;6.060;2022-12-18T09:44:36;-7.20;99.90
12700;DHT22;6414;49.570;6.060;2022-12-18T09:50:16;-7.30;99.90
12700;DHT22;6414;49.570;6.060;2022-12-18T09:52:53;-7.30;99.90
12700;DHT22;6414;49.570;6.060;2022-12-18T09:55:42;-7.10;99.90
12700;DHT22;6414;49.570;6.060;2022-12-18T09:58:36;-7.10;99.90
12700;DHT22;6414;49.570;6.060;2022-12-18T10:01:21;-7.20;99.90
12700;DHT22;6414;49.570;6.060;2022-12-18T10:04:08;-7.10;99.90
12700;DHT22;6414;49.570;6.060;2022-12-18T10:07:13;-7.10;99.90
12700;DHT22;6414;49.570;6.060;2022-12-18T10:10:13;-7.10;99.90
12700;DHT22;6414;49.570;6.060;2022-12-18T10:13:11;-7.10;99.90
12700;DHT22;6414;49.570;6.060;2022-12-18T10:16:12;-7.00;99.90
12700;DHT22;6414;49.570;6.060;2022-12-18T10:19:18;-7.00;99.90
12700;DHT22;6414;49.570;6.060;2022-12-18T10:22:18;-7.00;99.90
12700;DHT22;6414;49.570;6.060;2022-12-18T10:28:19;-6.90;99.90
12700;DHT22;6414;49.570;6.060;2022-12-18T10:31:17;-6.90;99.90
12700;DHT22;6414;49.570;6.060;2022-12-18T10:34:02;-6.80;99.90
12700;DHT22;6414;49.570;6.060;2022-12-18T10:36:47;-6.80;99.90
12700;DHT22;6414;49.570;6.060;2022-12-18T10:39:33;-6.70;99.90
12700;DHT22;6414;49.570;6.060;2022-12-18T10:42:19;-6.90;99.90
12700;DHT22;6414;49.570;6.060;2022-12-18T10:45:09;-6.60;99.90
12700;DHT22;6414;49.570;6.060;2022-12-18T10:47:54;-6.70;99.90
12700;DHT22;6414;49.570;6.060;2022-12-18T10:50:39;-6.80;99.90
12700;DHT22;6414;49.570;6.060;2022-12-18T10:53:27;-6.70;99.90
12700;DHT22;6414;49.570;6.060;2022-12-18T10:56:11;-6.70;99.90
12700;DHT22;6414;49.570;6.060;2022-12-18T10:59:02;-6.50;99.90
12700;DHT22;6414;49.570;6.060;2022-12-18T11:01:49;-6.50;99.90
12700;DHT22;6414;49.570;6.060;2022-12-18T11:04:34;-6.60;99.90
12700;DHT22;6414;49.570;6.060;2022-12-18T11:07:20;-6.60;99.90
12700;DHT22;6414;49.570;6.060;2022-12-18T11:10:14;-6.60;99.90
12700;DHT22;6414;49.570;6.060;2022-12-18T11:12:51;-6.50;99.90
12700;DHT22;6414;49.570;6.060;2022-12-18T11:15:36;-6.30;99.90
12700;DHT22;6414;49.570;6.060;2022-12-18T11:18:33;-6.40;99.90
12700;DHT22;6414;49.570;6.060;2022-12-18T11:21:19;-6.40;99.90
12700;DHT22;6414;49.570;6.060;2022-12-18T11:24:04;-6.40;99.90
12700;DHT22;6414;49.570;6.060;2022-12-18T11:26:50;-6.30;99.90
12700;DHT22;6414;49.570;6.060;2022-12-18T11:29:37;-6.40;99.90
12700;DHT22;6414;49.570;6.060;2022-12-18T11:33:01;-6.30;99.90
12700;DHT22;6414;49.570;6.060;2022-12-18T11:35:30;-6.30;99.90
12700;DHT22;6414;49.570;6.060;2022-12-18T11:43:55;-6.20;99.90
12700;DHT22;6414;49.570;6.060;2022-12-18T11:46:51;-6.20;99.90
12700;DHT22;6414;49.570;6.060;2022-12-18T11:49:34;-6.10;99.90
12700;DHT22;6414;49.570;6.060;2022-12-18T11:52:24;-6.10;99.90
12700;DHT22;6414;49.570;6.060;2022-12-18T11:55:38;-6.00;99.90
12700;DHT22;6414;49.570;6.060;2022-12-18T12:01:27;-5.90;99.90
12700;DHT22;6414;49.570;6.060;2022-12-18T12:04:31;-5.90;99.90
12700;DHT22;6414;49.570;6.060;2022-12-18T12:13:34;-5.90;99.90
12700;DHT22;6414;49.570;6.060;2022-12-18T12:16:17;-5.80;99.90
12700;DHT22;6414;49.570;6.060;2022-12-18T12:28:28;-5.70;99.90
12700;DHT22;6414;49.570;6.060;2022-12-18T12:31:11;-5.60;99.90
12700;DHT22;6414;49.570;6.060;2022-12-18T12:36:42;-5.50;99.90
12700;DHT22;6414;49.570;6.060;2022-12-18T12:39:27;-5.50;99.90
12700;DHT22;6414;49.570;6.060;2022-12-18T12:42:16;-5.50;99.90
12700;DHT22;6414;49.570;6.060;2022-12-18T12:45:36;-5.40;99.90
12700;DHT22;6414;49.570;6.060;2022-12-18T12:51:26;-5.50;99.90
12700;DHT22;6414;49.570;6.060;2022-12-18T12:54:17;-5.30;99.90
12700;DHT22;6414;49.570;6.060;2022-12-18T13:00:01;-5.30;99.90
12700;DHT22;6414;49.570;6.060;2022-12-18T13:03:03;-5.30;99.90
12700;DHT22;6414;49.570;6.060;2022-12-18T13:05:50;-5.40;99.90
12700;DHT22;6414;49.570;6.060;2022-12-18T13:08:34;-5.40;99.90
12700;DHT22;6414;49.570;6.060;2022-12-18T13:11:35;-5.30;99.90
12700;DHT22;6414;49.570;6.060;2022-12-18T13:14:38;-5.30;99.90
12700;DHT22;6414;49.570;6.060;2022-12-18T13:17:27;-5.40;99.90
12700;DHT22;6414;49.570;6.060;2022-12-18T13:20:12;-5.30;99.90
12700;DHT22;6414;49.570;6.060;2022-12-18T13:22:57;-5.30;99.90
12700;DHT22;6414;49.570;6.060;2022-12-18T13:25:43;-5.40;99.90
12700;DHT22;6414;49.570;6.060;2022-12-18T13:34:28;-5.30;99.90
12700;DHT22;6414;49.570;6.060;2022-12-18T13:43:27;-5.30;99.90
12700;DHT22;6414;49.570;6.060;2022-12-18T13:51:59;-5.20;99.90
12700;DHT22;6414;49.570;6.060;2022-12-18T13:54:47;-5.20;99.90
12700;DHT22;6414;49.570;6.060;2022-12-18T13:57:37;-5.20;99.90
12700;DHT22;6414;49.570;6.060;2022-12-18T14:03:24;-5.10;99.90
12700;DHT22;6414;49.570;6.060;2022-12-18T14:06:08;-5.20;99.90
12700;DHT22;6414;49.570;6.060;2022-12-18T14:08:54;-5.20;99.90
12700;DHT22;6414;49.570;6.060;2022-12-18T14:11:40;-5.30;99.90
12700;DHT22;6414;49.570;6.060;2022-12-18T14:14:26;-5.40;99.90
12700;DHT22;6414;49.570;6.060;2022-12-18T14:17:12;-5.30;99.90
12700;DHT22;6414;49.570;6.060;2022-12-18T14:19:57;-5.30;99.90
12700;DHT22;6414;49.570;6.060;2022-12-18T14:22:43;-5.30;99.90
12700;DHT22;6414;49.570;6.060;2022-12-18T14:25:29;-5.30;99.90
12700;DHT22;6414;49.570;6.060;2022-12-18T14:28:14;-5.30;99.90
12700;DHT22;6414;49.570;6.060;2022-12-18T14:31:00;-5.30;99.90
12700;DHT22;6414;49.570;6.060;2022-12-18T14:33:46;-5.30;99.90
12700;DHT22;6414;49.570;6.060;2022-12-18T14:36:32;-5.20;99.90
12700;DHT22;6414;49.570;6.060;2022-12-18T14:39:17;-5.30;99.90
12700;DHT22;6414;49.570;6.060;2022-12-18T14:42:03;-5.20;99.90
12700;DHT22;6414;49.570;6.060;2022-12-18T14:44:48;-5.30;99.90
12700;DHT22;6414;49.570;6.060;2022-12-18T14:47:34;-5.20;99.90
12700;DHT22;6414;49.570;6.060;2022-12-18T14:50:20;-5.30;99.90
12700;DHT22;6414;49.570;6.060;2022-12-18T14:53:16;-5.30;99.90
12700;DHT22;6414;49.570;6.060;2022-12-18T14:55:52;-5.20;99.90
12700;DHT22;6414;49.570;6.060;2022-12-18T14:58:37;-5.20;99.90
12700;DHT22;6414;49.570;6.060;2022-12-18T15:01:24;-5.30;99.90
12700;DHT22;6414;49.570;6.060;2022-12-18T15:04:23;-5.20;99.90
12700;DHT22;6414;49.570;6.060;2022-12-18T15:07:13;-5.20;99.90
12700;DHT22;6414;49.570;6.060;2022-12-18T15:15:47;-5.10;99.90
12700;DHT22;6414;49.570;6.060;2022-12-18T15:18:32;-5.20;99.90
12700;DHT22;6414;49.570;6.060;2022-12-18T15:21:19;-5.20;99.90
12700;DHT22;6414;49.570;6.060;2022-12-18T15:24:13;-5.20;99.90
12700;DHT22;6414;49.570;6.060;2022-12-18T15:26:50;-5.20;99.90
12700;DHT22;6414;49.570;6.060;2022-12-18T15:29:35;-5.20;99.90
12700;DHT22;6414;49.570;6.060;2022-12-18T15:32:22;-5.10;99.90
12700;DHT22;6414;49.570;6.060;2022-12-18T15:37:55;-5.10;99.90
12700;DHT22;6414;49.570;6.060;2022-12-18T15:40:41;-5.10;99.90
12700;DHT22;6414;49.570;6.060;2022-12-18T15:43:27;-5.10;99.90
12700;DHT22;6414;49.570;6.060;2022-12-18T15:46:21;-5.10;99.90
12700;DHT22;6414;49.570;6.060;2022-12-18T15:49:07;-5.10;99.90
12700;DHT22;6414;49.570;6.060;2022-12-18T15:51:56;-5.10;99.90
12700;DHT22;6414;49.570;6.060;2022-12-18T15:54:40;-5.00;99.90
12700;DHT22;6414;49.570;6.060;2022-12-18T15:57:44;-5.00;99.90
12700;DHT22;6414;49.570;6.060;2022-12-18T16:00:29;-5.00;99.90
12700;DHT22;6414;49.570;6.060;2022-12-18T16:03:14;-4.90;99.90
12700;DHT22;6414;49.570;6.060;2022-12-18T16:06:00;-4.90;99.90
12700;DHT22;6414;49.570;6.060;2022-12-18T16:08:46;-4.90;99.90
12700;DHT22;6414;49.570;6.060;2022-12-18T16:11:33;-4.90;99.90
12700;DHT22;6414;49.570;6.060;2022-12-18T16:14:28;-4.90;99.90
12700;DHT22;6414;49.570;6.060;2022-12-18T16:17:13;-4.80;99.90
12700;DHT22;6414;49.570;6.060;2022-12-18T16:19:58;-4.80;99.90
12700;DHT22;6414;49.570;6.060;2022-12-18T16:22:44;-4.80;99.90
12700;DHT22;6414;49.570;6.060;2022-12-18T16:25:29;-4.80;99.90
12700;DHT22;6414;49.570;6.060;2022-12-18T16:28:15;-4.80;99.90
12700;DHT22;6414;49.570;6.060;2022-12-18T16:31:00;-4.80;99.90
12700;DHT22;6414;49.570;6.060;2022-12-18T16:33:46;-4.70;99.90
12700;DHT22;6414;49.570;6.060;2022-12-18T16:36:32;-4.80;99.90
12700;DHT22;6414;49.570;6.060;2022-12-18T16:39:18;-4.80;99.90
12700;DHT22;6414;49.570;6.060;2022-12-18T16:42:04;-4.70;99.90
12700;DHT22;6414;49.570;6.060;2022-12-18T16:44:49;-4.70;99.90
12700;DHT22;6414;49.570;6.060;2022-12-18T16:47:35;-4.70;99.90
12700;DHT22;6414;49.570;6.060;2022-12-18T16:50:20;-4.70;99.90
12700;DHT22;6414;49.570;6.060;2022-12-18T16:53:06;-4.60;99.90
12700;DHT22;6414;49.570;6.060;2022-12-18T16:55:55;-4.60;99.90
12700;DHT22;6414;49.570;6.060;2022-12-18T16:58:41;-4.60;99.90
12700;DHT22;6414;49.570;6.060;2022-12-18T17:01:27;-4.60;99.90
12700;DHT22;6414;49.570;6.060;2022-12-18T17:04:13;-4.50;99.90
12700;DHT22;6414;49.570;6.060;2022-12-18T17:06:58;-4.50;99.90
12700;DHT22;6414;49.570;6.060;2022-12-18T17:09:44;-4.50;99.90
12700;DHT22;6414;49.570;6.060;2022-12-18T17:12:30;-4.50;99.90
12700;DHT22;6414;49.570;6.060;2022-12-18T17:15:15;-4.50;99.90
12700;DHT22;6414;49.570;6.060;2022-12-18T17:18:01;-4.50;99.90
12700;DHT22;6414;49.570;6.060;2022-12-18T17:20:46;-4.40;99.90
12700;DHT22;6414;49.570;6.060;2022-12-18T17:23:31;-4.40;99.90
12700;DHT22;6414;49.570;6.060;2022-12-18T17:26:17;-4.40;99.90
12700;DHT22;6414;49.570;6.060;2022-12-18T17:29:02;-4.40;99.90
12700;DHT22;6414;49.570;6.060;2022-12-18T17:31:48;-4.30;99.90
12700;DHT22;6414;49.570;6.060;2022-12-18T17:34:34;-4.30;99.90
12700;DHT22;6414;49.570;6.060;2022-12-18T17:37:19;-4.20;99.90
12700;DHT22;6414;49.570;6.060;2022-12-18T17:40:04;-4.20;99.90
12700;DHT22;6414;49.570;6.060;2022-12-18T17:42:51;-4.20;99.90
12700;DHT22;6414;49.570;6.060;2022-12-18T17:45:36;-4.20;99.90
12700;DHT22;6414;49.570;6.060;2022-12-18T17:48:21;-4.20;99.90
12700;DHT22;6414;49.570;6.060;2022-12-18T17:51:07;-4.10;99.90
12700;DHT22;6414;49.570;6.060;2022-12-18T17:53:54;-4.10;99.90
12700;DHT22;6414;49.570;6.060;2022-12-18T17:56:40;-4.10;99.90
12700;DHT22;6414;49.570;6.060;2022-12-18T17:59:25;-4.10;99.90
12700;DHT22;6414;49.570;6.060;2022-12-18T18:02:11;-4.10;99.90
12700;DHT22;6414;49.570;6.060;2022-12-18T18:04:56;-4.00;99.90
12700;DHT22;6414;49.570;6.060;2022-12-18T18:07:42;-4.00;99.90
12700;DHT22;6414;49.570;6.060;2022-12-18T18:10:28;-3.90;99.90
12700;DHT22;6414;49.570;6.060;2022-12-18T18:13:20;-3.90;99.90
12700;DHT22;6414;49.570;6.060;2022-12-18T18:16:20;-3.90;99.90
12700;DHT22;6414;49.570;6.060;2022-12-18T18:19:07;-3.90;99.90
12700;DHT22;6414;49.570;6.060;2022-12-18T18:21:51;-3.90;99.90
12700;DHT22;6414;49.570;6.060;2022-12-18T18:24:38;-3.80;99.90
12700;DHT22;6414;49.570;6.060;2022-12-18T18:27:24;-3.80;99.90
12700;DHT22;6414;49.570;6.060;2022-12-18T18:30:10;-3.80;99.90
12700;DHT22;6414;49.570;6.060;2022-12-18T18:32:55;-3.70;99.90
12700;DHT22;6414;49.570;6.060;2022-12-18T18:35:43;-3.70;99.90
12700;DHT22;6414;49.570;6.060;2022-12-18T18:38:29;-3.70;99.90
12700;DHT22;6414;49.570;6.060;2022-12-18T18:41:15;-3.60;99.90
12700;DHT22;6414;49.570;6.060;2022-12-18T18:44:00;-3.60;99.90
12700;DHT22;6414;49.570;6.060;2022-12-18T18:46:45;-3.50;99.90
12700;DHT22;6414;49.570;6.060;2022-12-18T18:49:32;-3.50;99.90
12700;DHT22;6414;49.570;6.060;2022-12-18T18:52:17;-3.50;99.90
12700;DHT22;6414;49.570;6.060;2022-12-18T18:55:02;-3.60;99.90
12700;DHT22;6414;49.570;6.060;2022-12-18T18:57:48;-3.60;99.90
12700;DHT22;6414;49.570;6.060;2022-12-18T19:00:34;-3.60;99.90
12700;DHT22;6414;49.570;6.060;2022-12-18T19:03:19;-3.60;99.90
12700;DHT22;6414;49.570;6.060;2022-12-18T19:06:06;-3.60;99.90
12700;DHT22;6414;49.570;6.060;2022-12-18T19:08:52;-3.60;99.90